EmailTwitter


Surface observations / United Kingdom / EGLC

Regions: Quebec | Canada | USA | Europe | France | UK | Elsewhere
Station
Display
Info & Location for EGLC | Help decoding METAR

Weather Conditions observed on 2017/03/28 at 03:50 UTC at LONDON CITY AIRP, UK (EGLC)

Obstruction(s) to Vision: fog.

Temperature: 6.0 Celsius.

Dewpoint: 6.0 Celsius.

Relative Humidity: 100%

Windchill Factor: 3.

Winds: East at 13 km/h or 7 knots.

Mean Sea level Pressure: 101.90 kilopascals.

Horizontal visibility: 0.25 statute miles or 0.40 kilometers.

Coded METAR:

EGLC 280350Z AUTO 09007KT 0400 FG VV/// 06/06 Q1019=